createdAt,value
2022-11-29T00:01:45.110Z,7.30
2022-11-29T00:04:14.709Z,7.20
2022-11-29T00:06:42.704Z,7.30
2022-11-29T00:09:14.526Z,7.30
2022-11-29T00:12:01.181Z,7.30
2022-11-29T00:14:30.537Z,7.40
2022-11-29T00:17:02.245Z,7.30
2022-11-29T00:19:32.877Z,7.30
2022-11-29T00:22:02.238Z,7.20
2022-11-29T00:24:31.597Z,7.10
2022-11-29T00:27:01.110Z,7.00
2022-11-29T00:29:30.783Z,7.00
2022-11-29T00:31:58.792Z,7.00
2022-11-29T00:34:26.889Z,7.10
2022-11-29T00:36:56.356Z,7.10
2022-11-29T00:39:24.416Z,7.10
2022-11-29T00:41:52.450Z,7.10
2022-11-29T00:44:20.832Z,7.10
2022-11-29T00:46:49.745Z,7.10
2022-11-29T00:49:18.638Z,7.10
2022-11-29T00:51:46.800Z,7.10
2022-11-29T00:54:16.979Z,7.10
2022-11-29T00:56:45.351Z,7.10
2022-11-29T00:59:13.439Z,7.10
2022-11-29T01:01:41.547Z,7.20
2022-11-29T01:04:09.667Z,7.20
2022-11-29T01:06:37.760Z,7.10
2022-11-29T01:09:06.391Z,7.20
2022-11-29T01:11:36.601Z,7.20
2022-11-29T01:14:05.594Z,7.10
2022-11-29T01:16:36.438Z,7.10
2022-11-29T01:19:04.769Z,7.10
2022-11-29T01:21:35.645Z,7.10
2022-11-29T01:24:03.794Z,7.10
2022-11-29T01:26:32.840Z,7.10
2022-11-29T01:29:02.237Z,7.10
2022-11-29T01:31:35.891Z,7.00
2022-11-29T01:34:06.863Z,7.00
2022-11-29T01:36:36.154Z,7.00
2022-11-29T01:39:06.763Z,7.00
2022-11-29T01:41:37.499Z,7.00
2022-11-29T01:44:48.928Z,7.00
2022-11-29T01:47:19.918Z,7.00
2022-11-29T01:49:51.168Z,7.00
2022-11-29T01:52:24.749Z,6.90
2022-11-29T01:54:59.301Z,6.90
2022-11-29T01:57:28.839Z,6.90
2022-11-29T02:00:05.975Z,7.00
2022-11-29T02:02:45.960Z,7.00
2022-11-29T02:05:17.923Z,7.10
2022-11-29T02:07:51.877Z,7.20
2022-11-29T02:10:21.117Z,7.20
2022-11-29T02:13:02.018Z,7.20
2022-11-29T02:15:46.651Z,7.10
2022-11-29T02:18:27.807Z,7.10
2022-11-29T02:21:19.727Z,7.10
2022-11-29T02:24:46.938Z,7.00
2022-11-29T02:28:13.430Z,7.00
2022-11-29T02:31:24.610Z,7.00
2022-11-29T02:34:16.302Z,6.90
2022-11-29T02:37:18.743Z,6.90
2022-11-29T02:40:41.505Z,6.90
2022-11-29T02:43:58.374Z,7.00
2022-11-29T02:46:55.570Z,7.00
2022-11-29T02:49:50.488Z,6.90
2022-11-29T02:52:30.291Z,6.90
2022-11-29T02:55:09.165Z,6.80
2022-11-29T02:57:48.691Z,6.80
2022-11-29T03:00:20.587Z,6.70
2022-11-29T03:02:59.851Z,6.60
2022-11-29T03:05:42.754Z,6.60
2022-11-29T03:08:24.223Z,6.70
2022-11-29T03:11:06.815Z,6.70
2022-11-29T03:13:53.363Z,6.70
2022-11-29T03:16:42.861Z,6.70
2022-11-29T03:19:34.463Z,6.70
2022-11-29T03:22:16.079Z,6.60
2022-11-29T03:24:55.794Z,6.50
2022-11-29T03:27:39.293Z,6.50
2022-11-29T03:30:10.798Z,6.60
2022-11-29T03:32:51.618Z,6.50
2022-11-29T03:35:26.446Z,6.50
2022-11-29T03:38:09.863Z,6.40
2022-11-29T03:40:49.114Z,6.40
2022-11-29T03:43:24.754Z,6.30
2022-11-29T03:46:01.788Z,6.30
2022-11-29T03:48:37.609Z,6.20
2022-11-29T03:51:15.047Z,6.20
2022-11-29T03:53:52.595Z,6.10
2022-11-29T03:56:33.561Z,6.20
2022-11-29T03:59:22.409Z,6.10
2022-11-29T04:03:02.970Z,6.10
2022-11-29T04:06:16.975Z,6.10
2022-11-29T04:09:17.935Z,6.10
2022-11-29T04:12:22.138Z,6.10
2022-11-29T04:15:46.294Z,6.00
2022-11-29T04:18:51.805Z,5.90
2022-11-29T04:21:38.835Z,5.80
2022-11-29T04:24:51.930Z,5.90
2022-11-29T04:27:41.435Z,5.90
2022-11-29T04:30:19.998Z,5.90
2022-11-29T04:33:33.234Z,5.90
2022-11-29T04:36:46.593Z,5.90
2022-11-29T04:39:39.087Z,5.80
2022-11-29T04:42:56.190Z,5.80
2022-11-29T04:46:13.523Z,5.80
2022-11-29T04:49:49.770Z,5.80
2022-11-29T04:52:42.925Z,5.80
2022-11-29T04:55:31.098Z,5.80
2022-11-29T04:58:15.196Z,5.80
2022-11-29T05:01:00.537Z,5.90
2022-11-29T05:03:42.424Z,5.90
2022-11-29T05:06:24.719Z,5.80
2022-11-29T05:09:05.356Z,5.80
2022-11-29T05:11:59.686Z,5.80
2022-11-29T05:14:45.786Z,5.80
2022-11-29T05:17:32.608Z,5.80
2022-11-29T05:20:27.186Z,5.80
2022-11-29T05:23:20.850Z,5.80
2022-11-29T05:25:59.047Z,5.90
2022-11-29T05:28:46.201Z,5.80
2022-11-29T05:31:40.608Z,5.80
2022-11-29T05:34:43.977Z,5.80
2022-11-29T05:37:31.099Z,5.80
2022-11-29T05:40:34.627Z,5.90
2022-11-29T05:43:37.306Z,5.90
2022-11-29T05:46:13.597Z,5.90
2022-11-29T05:48:56.207Z,5.70
2022-11-29T05:51:41.501Z,5.80
2022-11-29T05:54:25.432Z,5.80
2022-11-29T05:57:10.709Z,5.70
2022-11-29T05:59:42.639Z,5.80
2022-11-29T06:02:32.232Z,5.80
2022-11-29T06:05:13.235Z,5.80
2022-11-29T06:07:51.639Z,5.80
2022-11-29T06:10:23.716Z,5.80
2022-11-29T06:13:12.375Z,5.80
2022-11-29T06:16:25.596Z,5.80
2022-11-29T06:19:43.887Z,5.80
2022-11-29T06:22:35.589Z,5.70
2022-11-29T06:25:24.519Z,5.70
2022-11-29T06:28:11.255Z,5.70
2022-11-29T06:31:00.587Z,5.70
2022-11-29T06:33:45.109Z,5.60
2022-11-29T06:36:20.755Z,5.60
2022-11-29T06:38:49.499Z,5.60
2022-11-29T06:41:22.486Z,5.60
2022-11-29T06:43:52.211Z,5.60
2022-11-29T06:46:40.195Z,5.60
2022-11-29T06:49:15.654Z,5.60
2022-11-29T06:52:00.952Z,5.60
2022-11-29T06:54:58.110Z,5.60
2022-11-29T06:57:38.404Z,5.60
2022-11-29T07:00:17.174Z,5.60
2022-11-29T07:03:17.788Z,5.50
2022-11-29T07:05:47.979Z,5.50
2022-11-29T07:08:19.722Z,5.50
2022-11-29T07:10:51.063Z,5.50
2022-11-29T07:13:20.336Z,5.50
2022-11-29T07:16:03.326Z,5.50
2022-11-29T07:18:45.532Z,5.60
2022-11-29T07:21:32.878Z,5.60
2022-11-29T07:24:17.361Z,5.60
2022-11-29T07:26:59.683Z,5.60
2022-11-29T07:29:39.395Z,5.70
2022-11-29T07:32:22.743Z,5.70
2022-11-29T07:35:03.761Z,5.70
2022-11-29T07:37:54.425Z,5.80
2022-11-29T07:40:37.385Z,5.70
2022-11-29T07:43:26.744Z,5.80
2022-11-29T07:45:57.026Z,5.80
2022-11-29T07:48:25.115Z,5.80
2022-11-29T07:50:53.685Z,5.80
2022-11-29T07:53:25.222Z,5.90
2022-11-29T07:55:53.303Z,5.90
2022-11-29T07:58:21.379Z,5.90
2022-11-29T08:00:49.551Z,6.00
2022-11-29T08:03:17.662Z,6.00
2022-11-29T08:05:48.343Z,6.10
2022-11-29T08:08:16.611Z,6.20
2022-11-29T08:10:46.095Z,6.20
2022-11-29T08:13:14.646Z,6.20
2022-11-29T08:15:46.347Z,6.20
2022-11-29T08:18:17.638Z,6.20
2022-11-29T08:20:46.313Z,6.30
2022-11-29T08:23:17.339Z,6.40
2022-11-29T08:25:46.710Z,6.40
2022-11-29T08:28:14.838Z,6.40
2022-11-29T08:30:42.924Z,6.40
2022-11-29T08:33:10.966Z,6.30
2022-11-29T08:35:39.874Z,6.20
2022-11-29T08:38:07.875Z,6.30
2022-11-29T08:40:35.885Z,6.30
2022-11-29T08:43:05.226Z,6.40
2022-11-29T08:45:33.299Z,6.40
2022-11-29T08:48:04.230Z,6.40
2022-11-29T08:50:32.210Z,6.30
2022-11-29T08:53:20.636Z,6.20
2022-11-29T08:55:48.655Z,6.20
2022-11-29T08:58:18.007Z,6.20
2022-11-29T09:00:47.069Z,6.30
2022-11-29T09:03:32.954Z,6.30
2022-11-29T09:06:11.975Z,6.40
2022-11-29T09:08:43.443Z,6.30
2022-11-29T09:11:16.429Z,6.20
2022-11-29T09:13:48.527Z,6.30
2022-11-29T09:16:20.231Z,6.30
2022-11-29T09:18:51.808Z,6.30
2022-11-29T09:21:20.339Z,6.50
2022-11-29T09:23:48.763Z,6.50
2022-11-29T09:26:20.671Z,6.60
2022-11-29T09:28:50.202Z,6.70
2022-11-29T09:31:20.029Z,6.70
2022-11-29T09:33:48.885Z,6.80
2022-11-29T09:36:17.137Z,6.80
2022-11-29T09:38:45.154Z,6.90
2022-11-29T09:41:43.005Z,6.90
2022-11-29T09:44:27.663Z,6.90
2022-11-29T09:47:11.124Z,7.00
2022-11-29T09:50:01.612Z,7.00
2022-11-29T09:52:47.693Z,7.10
2022-11-29T09:55:49.178Z,7.20
2022-11-29T09:58:22.813Z,7.20
2022-11-29T10:00:58.460Z,7.30
2022-11-29T10:03:32.818Z,7.20
2022-11-29T10:06:08.413Z,7.30
2022-11-29T10:08:44.451Z,7.30
2022-11-29T10:11:27.740Z,7.40
2022-11-29T10:14:03.825Z,7.40
2022-11-29T10:16:45.030Z,7.50
2022-11-29T10:19:26.269Z,7.70
2022-11-29T10:22:03.586Z,7.80
2022-11-29T10:24:34.861Z,7.80
2022-11-29T10:27:06.027Z,7.80
2022-11-29T10:29:34.535Z,7.80
2022-11-29T10:32:15.001Z,7.80
2022-11-29T10:34:44.715Z,7.70
2022-11-29T10:37:18.917Z,7.70
2022-11-29T10:39:51.615Z,7.90
2022-11-29T10:42:40.566Z,8.00
2022-11-29T10:45:18.888Z,8.20
2022-11-29T10:47:50.987Z,8.30
2022-11-29T10:50:23.828Z,8.10
2022-11-29T10:52:54.687Z,7.90
2022-11-29T10:55:31.844Z,7.70
2022-11-29T10:58:24.695Z,7.50
2022-11-29T11:01:01.591Z,7.40
2022-11-29T11:03:38.552Z,7.40
2022-11-29T11:06:18.158Z,7.30
2022-11-29T11:08:50.811Z,7.20
2022-11-29T11:11:31.245Z,7.30
2022-11-29T11:14:02.590Z,7.50
2022-11-29T11:16:36.839Z,7.50
2022-11-29T11:19:29.228Z,7.40
2022-11-29T11:21:59.176Z,7.50
2022-11-29T11:24:31.122Z,7.50
2022-11-29T11:27:01.118Z,7.60
2022-11-29T11:29:38.447Z,7.80
2022-11-29T11:32:17.678Z,7.90
2022-11-29T11:34:55.856Z,7.90
2022-11-29T11:37:27.385Z,7.70
2022-11-29T11:39:58.522Z,7.70
2022-11-29T11:42:38.440Z,7.80
2022-11-29T11:45:27.162Z,8.00
2022-11-29T11:47:59.830Z,7.90
2022-11-29T11:50:33.843Z,7.90
2022-11-29T11:53:07.481Z,7.70
2022-11-29T11:55:43.922Z,7.80
2022-11-29T11:58:22.852Z,7.80
2022-11-29T12:01:09.211Z,7.80
2022-11-29T12:03:49.827Z,7.80
2022-11-29T12:06:40.595Z,7.90
2022-11-29T12:09:20.717Z,8.10
2022-11-29T12:12:01.559Z,8.00
2022-11-29T12:14:46.578Z,8.00
2022-11-29T12:17:27.621Z,8.10
2022-11-29T12:20:16.208Z,8.10
2022-11-29T12:23:07.245Z,8.00
2022-11-29T12:25:44.377Z,8.00
2022-11-29T12:28:19.816Z,8.00
2022-11-29T12:31:05.468Z,8.00
2022-11-29T12:33:46.818Z,7.90
2022-11-29T12:36:29.642Z,7.80
2022-11-29T12:39:22.207Z,7.70
2022-11-29T12:41:58.439Z,7.60
2022-11-29T12:44:47.107Z,7.50
2022-11-29T12:47:36.743Z,7.40
2022-11-29T12:50:29.627Z,7.40
2022-11-29T12:53:23.949Z,7.30
2022-11-29T12:56:10.942Z,7.30
2022-11-29T12:58:58.084Z,7.10
2022-11-29T13:01:41.191Z,7.00
2022-11-29T13:04:24.997Z,6.80
2022-11-29T13:07:07.055Z,6.70
2022-11-29T13:10:02.751Z,6.50
2022-11-29T13:12:41.440Z,6.40
2022-11-29T13:15:17.425Z,6.40
2022-11-29T13:17:58.267Z,6.40
2022-11-29T13:20:42.378Z,6.30
2022-11-29T13:23:39.269Z,6.20
2022-11-29T13:26:14.176Z,6.10
2022-11-29T13:28:46.352Z,6.10
2022-11-29T13:31:19.328Z,6.10
2022-11-29T13:33:59.659Z,6.00
2022-11-29T13:36:49.100Z,6.00
2022-11-29T13:39:39.770Z,5.90
2022-11-29T13:42:20.331Z,6.10
2022-11-29T13:44:59.727Z,6.10
2022-11-29T13:47:28.198Z,6.00
2022-11-29T13:50:01.657Z,6.00
2022-11-29T13:52:42.490Z,6.00
2022-11-29T13:55:29.101Z,5.90
2022-11-29T13:58:21.982Z,5.90
2022-11-29T14:00:52.997Z,6.00
2022-11-29T14:03:32.167Z,6.20
2022-11-29T14:06:21.928Z,6.20
2022-11-29T14:09:27.250Z,6.20
2022-11-29T14:12:07.000Z,6.20
2022-11-29T14:14:50.169Z,6.20
2022-11-29T14:17:46.277Z,6.20
2022-11-29T14:20:58.158Z,6.30
2022-11-29T14:23:40.457Z,6.40
2022-11-29T14:26:35.709Z,6.50
2022-11-29T14:29:54.553Z,6.40
2022-11-29T14:32:25.883Z,6.30
2022-11-29T14:35:03.776Z,6.20
2022-11-29T14:37:46.614Z,6.00
2022-11-29T14:40:30.090Z,5.90
2022-11-29T14:42:59.027Z,5.90
2022-11-29T14:45:32.632Z,5.90
2022-11-29T14:48:01.803Z,5.90
2022-11-29T14:50:34.915Z,6.00
2022-11-29T14:53:04.595Z,6.00
2022-11-29T14:55:36.852Z,5.90
2022-11-29T14:58:19.533Z,5.90
2022-11-29T15:01:09.638Z,5.90
2022-11-29T15:03:48.024Z,5.80
2022-11-29T15:06:27.101Z,5.80
2022-11-29T15:09:13.874Z,5.80
2022-11-29T15:11:52.860Z,5.80
2022-11-29T15:14:37.769Z,5.80
2022-11-29T15:17:26.275Z,5.80
2022-11-29T15:20:29.192Z,5.80
2022-11-29T15:23:01.137Z,5.80
2022-11-29T15:25:33.883Z,5.70
2022-11-29T15:28:05.702Z,5.70
2022-11-29T15:30:38.251Z,5.80
2022-11-29T15:33:19.088Z,5.70
2022-11-29T15:35:51.699Z,5.60
2022-11-29T15:38:20.827Z,5.70
2022-11-29T15:40:54.401Z,5.70
2022-11-29T15:43:27.257Z,5.80
2022-11-29T15:45:57.894Z,5.80
2022-11-29T15:48:29.734Z,5.80
2022-11-29T15:51:09.717Z,5.80
2022-11-29T15:53:44.526Z,5.80
2022-11-29T15:56:21.648Z,5.80
2022-11-29T15:58:55.591Z,5.80
2022-11-29T16:01:23.795Z,5.90
2022-11-29T16:03:57.614Z,5.90
2022-11-29T16:06:33.688Z,5.80
2022-11-29T16:09:04.398Z,5.80
2022-11-29T16:11:33.197Z,5.80
2022-11-29T16:14:19.025Z,5.80
2022-11-29T16:16:52.436Z,5.80
2022-11-29T16:19:32.167Z,5.70
2022-11-29T16:22:23.976Z,5.70
2022-11-29T16:25:06.227Z,5.80
2022-11-29T16:27:38.045Z,5.70
2022-11-29T16:30:08.511Z,5.60
2022-11-29T16:32:44.058Z,5.60
2022-11-29T16:35:20.386Z,5.60
2022-11-29T16:37:49.273Z,5.60
2022-11-29T16:40:24.795Z,5.60
2022-11-29T16:43:20.305Z,5.50
2022-11-29T16:45:48.439Z,5.50
2022-11-29T16:48:31.869Z,5.50
2022-11-29T16:51:24.786Z,5.50
2022-11-29T16:53:55.845Z,5.50
2022-11-29T16:56:26.917Z,5.50
2022-11-29T16:59:25.906Z,5.30
2022-11-29T17:01:49.173Z,5.60
2022-11-29T17:04:23.475Z,5.60
2022-11-29T17:06:55.795Z,5.50
2022-11-29T17:09:28.280Z,5.50
2022-11-29T17:11:59.681Z,5.50
2022-11-29T17:14:31.916Z,5.50
2022-11-29T17:17:03.344Z,5.50
2022-11-29T17:19:32.182Z,5.50
2022-11-29T17:22:01.586Z,5.60
2022-11-29T17:24:30.677Z,5.50
2022-11-29T17:26:58.674Z,5.60
2022-11-29T17:29:26.735Z,5.50
2022-11-29T17:31:54.785Z,5.40
2022-11-29T17:34:22.884Z,5.30
2022-11-29T17:36:50.948Z,5.40
2022-11-29T17:39:21.582Z,5.40
2022-11-29T17:41:49.807Z,5.40
2022-11-29T17:44:18.007Z,5.40
2022-11-29T17:46:47.341Z,5.40
2022-11-29T17:49:15.559Z,5.30
2022-11-29T17:51:51.701Z,5.30
2022-11-29T17:54:23.009Z,5.30
2022-11-29T17:56:51.797Z,5.20
2022-11-29T17:59:20.425Z,5.20
2022-11-29T18:01:48.679Z,5.20
2022-11-29T18:04:16.890Z,5.30
2022-11-29T18:06:49.399Z,5.30
2022-11-29T18:09:19.799Z,5.30
2022-11-29T18:11:50.592Z,5.50
2022-11-29T18:14:22.599Z,5.50
2022-11-29T18:16:51.349Z,5.60
2022-11-29T18:19:22.269Z,5.60
2022-11-29T18:21:51.243Z,5.50
2022-11-29T18:24:20.049Z,5.40
2022-11-29T18:26:49.407Z,5.30
2022-11-29T18:29:18.031Z,5.20
2022-11-29T18:31:47.262Z,5.20
2022-11-29T18:35:53.577Z,5.30
2022-11-29T18:38:21.659Z,5.40
2022-11-29T18:40:49.706Z,5.40
2022-11-29T18:43:17.928Z,5.40
2022-11-29T18:45:46.059Z,5.40
2022-11-29T18:49:23.379Z,5.50
2022-11-29T18:51:51.693Z,5.50
2022-11-29T18:54:20.346Z,5.60
2022-11-29T18:56:51.146Z,5.40
2022-11-29T18:59:19.217Z,5.30
2022-11-29T19:01:49.335Z,5.30
2022-11-29T19:04:20.105Z,5.20
2022-11-29T19:06:50.792Z,5.10
2022-11-29T19:09:21.924Z,5.10
2022-11-29T19:11:50.848Z,5.20
2022-11-29T19:14:19.956Z,5.30
2022-11-29T19:16:50.800Z,5.30
2022-11-29T19:19:19.726Z,5.20
2022-11-29T19:21:49.258Z,5.30
2022-11-29T19:24:19.107Z,5.30
2022-11-29T19:26:50.191Z,5.30
2022-11-29T19:29:18.667Z,5.20
2022-11-29T19:31:46.860Z,5.20
2022-11-29T19:34:15.204Z,5.30
2022-11-29T19:36:45.371Z,5.30
2022-11-29T19:39:17.883Z,5.30
2022-11-29T19:41:48.517Z,5.40
2022-11-29T19:44:17.022Z,5.30
2022-11-29T19:46:48.536Z,5.20
2022-11-29T19:49:16.772Z,5.20
2022-11-29T19:51:45.041Z,5.30
2022-11-29T19:54:14.619Z,5.30
2022-11-29T19:56:42.763Z,5.40
2022-11-29T19:59:10.831Z,5.40
2022-11-29T20:01:41.725Z,5.40
2022-11-29T20:04:12.206Z,5.40
2022-11-29T20:06:40.829Z,5.40
2022-11-29T20:09:08.945Z,5.50
2022-11-29T20:11:38.569Z,5.60
2022-11-29T20:14:08.811Z,5.60
2022-11-29T20:16:39.048Z,5.60
2022-11-29T20:19:12.028Z,5.60
2022-11-29T20:21:44.039Z,5.60
2022-11-29T20:24:15.268Z,5.60
2022-11-29T20:26:48.360Z,5.50
2022-11-29T20:29:17.475Z,5.40
2022-11-29T20:31:50.711Z,5.30
2022-11-29T20:34:20.643Z,5.30
2022-11-29T20:37:13.509Z,5.40
2022-11-29T20:39:52.082Z,5.40
2022-11-29T20:42:53.699Z,5.30
2022-11-29T20:45:23.925Z,5.30
2022-11-29T20:47:59.701Z,5.30
2022-11-29T20:50:31.416Z,5.40
2022-11-29T20:53:26.589Z,5.40
2022-11-29T20:55:54.587Z,5.40
2022-11-29T20:58:26.294Z,5.40
2022-11-29T21:00:55.196Z,5.40
2022-11-29T21:03:24.648Z,5.40
2022-11-29T21:05:54.507Z,5.40
2022-11-29T21:08:25.847Z,5.40
2022-11-29T21:10:55.318Z,5.40
2022-11-29T21:13:25.688Z,5.40
2022-11-29T21:15:54.668Z,5.40
2022-11-29T21:18:26.560Z,5.50
2022-11-29T21:21:10.933Z,5.50
2022-11-29T21:23:50.410Z,5.50
2022-11-29T21:26:25.824Z,5.40
2022-11-29T21:29:12.939Z,5.60
2022-11-29T21:31:41.751Z,5.50
2022-11-29T21:34:10.075Z,5.40
2022-11-29T21:36:39.077Z,5.30
2022-11-29T21:39:11.980Z,5.20
2022-11-29T21:41:40.154Z,5.10
2022-11-29T21:44:09.554Z,5.00
2022-11-29T21:46:37.724Z,5.00
2022-11-29T21:49:06.146Z,5.00
2022-11-29T21:51:35.137Z,5.00
2022-11-29T21:54:03.299Z,5.00
2022-11-29T21:56:32.594Z,5.00
2022-11-29T21:59:00.623Z,5.00
2022-11-29T22:01:30.303Z,5.00
2022-11-29T22:03:58.359Z,5.00
2022-11-29T22:06:29.167Z,5.10
2022-11-29T22:08:57.319Z,5.20
2022-11-29T22:11:31.731Z,5.10
2022-11-29T22:14:14.753Z,5.00
2022-11-29T22:16:47.091Z,5.10
2022-11-29T22:19:17.323Z,5.20
2022-11-29T22:21:48.320Z,5.10
2022-11-29T22:24:19.107Z,5.10
2022-11-29T22:26:47.797Z,5.00
2022-11-29T22:29:17.074Z,5.00
2022-11-29T22:31:48.717Z,5.00
2022-11-29T22:34:17.645Z,5.00
2022-11-29T22:36:47.281Z,5.10
2022-11-29T22:39:15.976Z,5.00
2022-11-29T22:41:46.122Z,5.00
2022-11-29T22:44:17.579Z,5.00
2022-11-29T22:46:46.975Z,5.00
2022-11-29T22:49:15.040Z,5.10
2022-11-29T22:51:43.326Z,5.00
2022-11-29T22:54:15.215Z,5.00
2022-11-29T22:56:45.611Z,5.00
2022-11-29T22:59:14.889Z,5.00
2022-11-29T23:01:43.583Z,5.00
2022-11-29T23:04:15.670Z,5.00
2022-11-29T23:06:46.294Z,5.10
2022-11-29T23:09:17.400Z,5.10
2022-11-29T23:11:50.878Z,5.20
2022-11-29T23:14:19.971Z,5.30
2022-11-29T23:16:48.168Z,5.20
2022-11-29T23:19:18.991Z,5.20
2022-11-29T23:21:47.315Z,5.10
2022-11-29T23:24:17.403Z,5.00
2022-11-29T23:26:47.891Z,5.00
2022-11-29T23:29:19.145Z,5.00
2022-11-29T23:31:48.275Z,5.10
2022-11-29T23:34:17.998Z,5.10
2022-11-29T23:36:52.368Z,5.10
2022-11-29T23:39:21.414Z,5.20
2022-11-29T23:41:49.425Z,5.30
2022-11-29T23:44:17.447Z,5.30
2022-11-29T23:46:45.500Z,5.30
2022-11-29T23:49:13.543Z,5.20
2022-11-29T23:51:44.102Z,5.20
2022-11-29T23:54:12.184Z,5.10
2022-11-29T23:56:40.210Z,5.10
2022-11-29T23:59:08.430Z,5.10
